Time;durP1;ratioP1;P1;durP2;ratioP2;P2;SDS_P1;SDS_P2;PMS_P1;PMS_P2;Temp;Humidity;BMP_temperature;BMP_pressure;BME280_temperature;BME280_humidity;BME280_pressure;Samples;Min_cycle;Max_cycle;Signal;HPM_P1;HPM_P2
2022/07/03 00:00:41;;;;;;;4.97;3.00;;;21.20;93.10;;;;;;5084372;28;20507;-84
2022/07/03 00:03:07;;;;;;;6.72;3.20;;;21.20;93.50;;;;;;5095084;28;20077;-84
2022/07/03 00:06:26;;;;;;;8.65;3.05;;;21.20;93.30;;;;;;5094791;28;20031;-84
2022/07/03 00:08:52;;;;;;;6.95;2.97;;;21.10;93.40;;;;;;5087846;28;20020;-84
2022/07/03 00:11:52;;;;;;;6.10;2.95;;;21.10;93.40;;;;;;5109213;28;20023;-84
2022/07/03 00:14:18;;;;;;;7.50;3.20;;;21.10;93.50;;;;;;5073393;28;20024;-84
2022/07/03 00:16:43;;;;;;;7.25;3.10;;;21.10;93.70;;;;;;5093678;28;20024;-84
2022/07/03 00:19:09;;;;;;;6.78;3.40;;;21.00;93.90;;;;;;5057830;28;20032;-84
2022/07/03 00:21:56;;;;;;;7.95;3.35;;;21.00;94.00;;;;;;5057742;28;20115;-84
2022/07/03 00:24:26;;;;;;;5.53;3.30;;;21.00;94.20;;;;;;5094555;28;20036;-84
2022/07/03 00:26:53;;;;;;;5.63;3.55;;;20.90;94.30;;;;;;5083830;28;20020;-84
2022/07/03 00:29:24;;;;;;;6.43;3.45;;;20.90;94.40;;;;;;5076436;28;20124;-84
2022/07/03 00:31:50;;;;;;;6.10;3.20;;;20.80;94.50;;;;;;5074507;28;20028;-84
2022/07/03 00:34:17;;;;;;;8.30;3.13;;;20.80;94.60;;;;;;5069948;28;20492;-84
2022/07/03 00:36:46;;;;;;;8.90;3.30;;;20.80;94.70;;;;;;5060211;28;20108;-84
2022/07/03 00:39:12;;;;;;;7.75;3.40;;;20.80;95.00;;;;;;5082165;28;20099;-84
2022/07/03 00:41:38;;;;;;;5.15;2.90;;;20.80;95.00;;;;;;5069636;28;20156;-83
2022/07/03 00:44:04;;;;;;;6.25;3.38;;;20.70;95.00;;;;;;5060677;28;20057;-84
2022/07/03 00:46:30;;;;;;;8.73;3.08;;;20.70;95.20;;;;;;5092278;28;20036;-84
2022/07/03 00:48:58;;;;;;;5.28;3.05;;;20.70;95.40;;;;;;5040714;28;20025;-84
2022/07/03 00:51:29;;;;;;;6.90;3.13;;;20.70;95.50;;;;;;5090822;28;20039;-84
2022/07/03 00:53:59;;;;;;;6.82;3.22;;;20.70;95.60;;;;;;5094073;28;20149;-84
2022/07/03 00:56:31;;;;;;;7.57;3.13;;;20.60;95.60;;;;;;5059728;28;20032;-84
2022/07/03 00:58:59;;;;;;;7.00;3.00;;;20.60;95.80;;;;;;5040501;28;20397;-84
2022/07/03 01:01:37;;;;;;;5.13;3.20;;;20.60;95.80;;;;;;5073718;28;20048;-84
2022/07/03 01:04:25;;;;;;;5.07;3.15;;;20.60;95.90;;;;;;5068138;28;20020;-84
2022/07/03 01:07:12;;;;;;;5.00;2.90;;;20.50;96.00;;;;;;5094148;28;20051;-84
2022/07/03 01:13:25;;;;;;;6.75;3.42;;;20.40;96.20;;;;;;5077646;28;20543;-84
2022/07/03 01:16:07;;;;;;;4.97;2.97;;;20.40;96.30;;;;;;5062305;28;20024;-84
2022/07/03 01:18:50;;;;;;;6.10;3.10;;;20.30;96.40;;;;;;5074817;28;20040;-84
2022/07/03 01:21:59;;;;;;;7.07;3.33;;;20.30;96.40;;;;;;5073513;28;20036;-84
2022/07/03 01:24:43;;;;;;;7.30;3.47;;;20.30;96.50;;;;;;5032061;28;20148;-84
2022/07/03 01:27:16;;;;;;;5.82;3.42;;;20.20;96.50;;;;;;5069457;28;20023;-84
2022/07/03 01:30:15;;;;;;;8.77;3.42;;;20.20;96.70;;;;;;5040204;28;20021;-84
2022/07/03 01:32:45;;;;;;;5.95;3.05;;;20.10;96.80;;;;;;5050354;28;20029;-84
2022/07/03 01:35:34;;;;;;;6.35;2.72;;;20.10;96.80;;;;;;5064500;23;20107;-83
2022/07/03 01:38:09;;;;;;;7.72;3.45;;;20.10;97.10;;;;;;4995432;28;20092;-84
2022/07/03 01:40:37;;;;;;;6.15;3.63;;;20.10;97.20;;;;;;5012193;28;20083;-84
2022/07/03 01:43:05;;;;;;;4.88;3.20;;;20.00;97.60;;;;;;5005506;28;20022;-84
2022/07/03 01:45:34;;;;;;;8.60;3.40;;;20.00;97.50;;;;;;4996733;28;20025;-84
2022/07/03 01:48:02;;;;;;;4.55;2.60;;;20.00;97.70;;;;;;4996794;28;20550;-84
2022/07/03 01:50:29;;;;;;;5.15;2.75;;;20.00;97.90;;;;;;5014316;28;20030;-84
2022/07/03 01:52:58;;;;;;;5.85;2.55;;;19.90;98.00;;;;;;4989377;28;20056;-85
2022/07/03 01:55:25;;;;;;;5.00;2.40;;;19.90;98.00;;;;;;5015775;28;20018;-85
2022/07/03 01:57:57;;;;;;;4.93;2.53;;;19.90;98.10;;;;;;5034201;28;20034;-85
2022/07/03 02:00:23;;;;;;;5.35;2.83;;;19.90;98.10;;;;;;5002500;28;20025;-84
2022/07/03 02:03:04;;;;;;;5.82;2.80;;;19.90;98.20;;;;;;5001930;28;20026;-84
2022/07/03 02:05:44;;;;;;;5.55;2.83;;;19.90;98.30;;;;;;5033956;28;20021;-84
2022/07/03 02:08:32;;;;;;;4.82;2.78;;;19.90;98.40;;;;;;5002079;28;20033;-84
2022/07/03 02:11:18;;;;;;;4.60;2.78;;;19.80;98.40;;;;;;5013960;28;20026;-84
2022/07/03 02:14:22;;;;;;;6.28;3.40;;;19.80;98.40;;;;;;5025436;28;20033;-84
2022/07/03 02:17:15;;;;;;;5.50;3.05;;;19.80;98.30;;;;;;4976409;28;20443;-83
2022/07/03 02:19:54;;;;;;;5.22;3.10;;;19.70;98.30;;;;;;5015407;28;20025;-84
2022/07/03 02:22:24;;;;;;;5.97;3.10;;;19.70;98.30;;;;;;4996262;28;20068;-84
2022/07/03 02:24:51;;;;;;;5.35;3.10;;;19.70;98.30;;;;;;5010031;28;20030;-84
2022/07/03 02:27:21;;;;;;;5.30;3.17;;;19.70;98.30;;;;;;5024764;28;20044;-84
2022/07/03 02:30:05;;;;;;;5.57;3.10;;;19.70;98.30;;;;;;5014757;28;20021;-84
2022/07/03 02:32:36;;;;;;;7.30;3.53;;;19.70;98.30;;;;;;5015977;28;20052;-84
2022/07/03 02:35:06;;;;;;;5.75;3.35;;;19.60;98.20;;;;;;5033590;28;20052;-84
2022/07/03 02:37:55;;;;;;;4.97;3.30;;;19.60;98.20;;;;;;5015998;28;20048;-84
2022/07/03 02:40:43;;;;;;;6.70;3.45;;;19.60;98.20;;;;;;5019598;28;20375;-84
2022/07/03 02:43:46;;;;;;;9.07;3.40;;;19.50;98.20;;;;;;5001373;28;20032;-84
2022/07/03 02:49:52;;;;;;;6.00;3.42;;;19.50;98.30;;;;;;5013511;28;20507;-84
2022/07/03 02:52:24;;;;;;;5.72;3.50;;;19.40;98.30;;;;;;4974019;28;20487;-84
2022/07/03 02:54:52;;;;;;;5.28;3.03;;;19.40;98.40;;;;;;5026235;28;20028;-84
2022/07/03 02:57:22;;;;;;;7.28;3.38;;;19.40;98.60;;;;;;4984542;28;20036;-84
2022/07/03 03:00:03;;;;;;;6.22;3.03;;;19.30;98.50;;;;;;4994067;28;20032;-84
2022/07/03 03:02:31;;;;;;;6.35;3.50;;;19.30;98.40;;;;;;4983778;28;20026;-84
2022/07/03 03:05:07;;;;;;;7.22;3.38;;;19.30;98.50;;;;;;5006164;28;20034;-84
2022/07/03 03:07:59;;;;;;;6.30;3.53;;;19.30;98.40;;;;;;5001291;28;20490;-84
2022/07/03 03:10:59;;;;;;;6.63;3.40;;;19.20;98.40;;;;;;5015776;28;20368;-84
2022/07/03 03:13:29;;;;;;;6.22;3.28;;;19.20;98.50;;;;;;4990723;28;20033;-84
2022/07/03 03:15:58;;;;;;;7.88;4.22;;;19.20;98.50;;;;;;5019897;28;20018;-84
2022/07/03 03:18:27;;;;;;;7.28;3.80;;;19.10;98.60;;;;;;5019702;28;20475;-84
2022/07/03 03:20:55;;;;;;;6.90;3.35;;;19.10;98.60;;;;;;5025747;28;20033;-84
2022/07/03 03:23:22;;;;;;;6.68;3.45;;;19.10;98.70;;;;;;5019100;28;20036;-83
2022/07/03 03:25:52;;;;;;;7.13;3.28;;;19.10;98.70;;;;;;5009228;28;20037;-84
2022/07/03 03:28:18;;;;;;;7.85;3.60;;;19.00;98.70;;;;;;5012554;28;20391;-84
2022/07/03 03:30:44;;;;;;;6.80;4.07;;;19.00;98.80;;;;;;5035692;28;20026;-84
2022/07/03 03:33:10;;;;;;;7.75;3.75;;;19.00;98.90;;;;;;5019147;28;20109;-84
2022/07/03 03:35:38;;;;;;;5.35;3.33;;;19.00;99.00;;;;;;4996454;28;20180;-84
2022/07/03 03:38:04;;;;;;;7.15;3.78;;;18.90;99.00;;;;;;5008662;28;20037;-84
2022/07/03 03:40:35;;;;;;;5.93;3.70;;;18.90;99.00;;;;;;5004894;28;20108;-84
2022/07/03 03:43:01;;;;;;;5.50;3.93;;;18.90;99.10;;;;;;5007690;28;20034;-84
2022/07/03 03:45:27;;;;;;;5.60;3.60;;;18.80;99.20;;;;;;4986287;28;20350;-84
2022/07/03 03:47:53;;;;;;;5.05;3.40;;;18.80;99.20;;;;;;5002599;28;20487;-83
2022/07/03 03:50:18;;;;;;;7.07;4.07;;;18.80;99.30;;;;;;5004809;28;20026;-84
2022/07/03 03:52:44;;;;;;;6.78;3.97;;;18.80;99.40;;;;;;4995052;28;20026;-84
2022/07/03 03:55:10;;;;;;;7.40;3.80;;;18.70;99.50;;;;;;4999036;28;20037;-84
2022/07/03 03:57:36;;;;;;;7.45;3.90;;;18.70;99.70;;;;;;5001299;28;20026;-85
2022/07/03 04:00:04;;;;;;;8.88;4.32;;;18.70;99.90;;;;;;4996781;28;20120;-85
2022/07/03 04:02:29;;;;;;;7.18;4.40;;;18.70;99.90;;;;;;5020416;28;20025;-85
2022/07/03 04:04:55;;;;;;;6.03;4.20;;;18.70;99.90;;;;;;4984271;28;20398;-85
2022/07/03 04:07:21;;;;;;;8.10;4.07;;;18.70;99.90;;;;;;4997103;28;20021;-85
2022/07/03 04:09:46;;;;;;;6.47;4.18;;;18.70;99.90;;;;;;4990338;28;20042;-85
2022/07/03 04:12:18;;;;;;;6.50;3.92;;;18.70;99.90;;;;;;5006479;28;20490;-85
2022/07/03 04:14:44;;;;;;;8.95;4.00;;;18.70;99.90;;;;;;5002692;28;20049;-85
2022/07/03 04:17:09;;;;;;;7.60;4.03;;;18.70;99.90;;;;;;5020283;28;20483;-86
2022/07/03 04:19:35;;;;;;;6.78;4.63;;;18.70;99.90;;;;;;5017106;28;20542;-85
2022/07/03 04:22:01;;;;;;;5.20;4.00;;;18.60;99.90;;;;;;5007249;28;20033;-85
2022/07/03 04:24:27;;;;;;;7.05;3.97;;;18.60;99.90;;;;;;5034357;28;20026;-85
2022/07/03 04:26:52;;;;;;;8.05;4.03;;;18.60;99.90;;;;;;4983533;28;20026;-86
2022/07/03 04:29:18;;;;;;;8.40;4.22;;;18.60;99.90;;;;;;4999698;28;20030;-85
2022/07/03 04:31:43;;;;;;;5.50;3.88;;;18.50;99.90;;;;;;5001678;28;20364;-85
2022/07/03 04:34:09;;;;;;;8.30;4.10;;;18.50;99.90;;;;;;5002619;28;20022;-85
2022/07/03 04:36:35;;;;;;;6.60;4.53;;;18.50;99.90;;;;;;4996057;28;20046;-85
2022/07/03 04:39:00;;;;;;;6.30;4.50;;;18.50;99.90;;;;;;4979841;28;20035;-85
2022/07/03 04:41:26;;;;;;;6.22;4.13;;;18.50;99.90;;;;;;4996311;28;20027;-85
2022/07/03 04:43:52;;;;;;;13.13;4.40;;;18.50;99.90;;;;;;4993485;28;20026;-85
2022/07/03 04:46:17;;;;;;;6.30;4.50;;;18.50;99.90;;;;;;4997264;28;20106;-85
2022/07/03 04:48:43;;;;;;;6.30;4.25;;;18.50;99.90;;;;;;4980284;28;20117;-85
2022/07/03 04:51:09;;;;;;;7.05;4.38;;;18.50;99.90;;;;;;5009308;28;20027;-85
2022/07/03 04:53:34;;;;;;;6.57;4.32;;;18.40;99.90;;;;;;4980453;28;20102;-85
2022/07/03 04:56:00;;;;;;;7.97;4.40;;;18.50;99.90;;;;;;5016123;28;20045;-86
2022/07/03 04:58:29;;;;;;;8.25;4.15;;;18.40;99.90;;;;;;5007569;28;20030;-85
2022/07/03 05:00:54;;;;;;;6.45;4.00;;;18.40;99.90;;;;;;4995121;28;20030;-85
2022/07/03 05:03:20;;;;;;;5.55;3.88;;;18.40;99.90;;;;;;4980239;28;20149;-86
2022/07/03 05:05:45;;;;;;;7.43;3.63;;;18.40;99.90;;;;;;4979913;28;20040;-85
2022/07/03 05:08:19;;;;;;;6.22;3.67;;;18.40;99.90;;;;;;4980848;28;20053;-85
2022/07/03 05:10:45;;;;;;;6.75;3.60;;;18.50;99.90;;;;;;4997069;28;20031;-85
2022/07/03 05:13:11;;;;;;;5.68;3.60;;;18.50;99.90;;;;;;4986564;28;20022;-85
2022/07/03 05:15:38;;;;;;;6.88;3.83;;;18.50;99.90;;;;;;4999256;28;20034;-85
2022/07/03 05:18:04;;;;;;;6.88;4.20;;;18.50;99.90;;;;;;4994167;28;20061;-85
2022/07/03 05:20:30;;;;;;;6.30;3.40;;;18.50;99.90;;;;;;4979156;28;20117;-85
2022/07/03 05:22:58;;;;;;;7.03;3.90;;;18.50;99.90;;;;;;5011712;28;20030;-85
2022/07/03 05:25:24;;;;;;;5.80;3.50;;;18.50;99.90;;;;;;4990094;28;20068;-85
2022/07/03 05:27:50;;;;;;;5.97;3.55;;;18.60;99.90;;;;;;4979874;28;20034;-85
2022/07/03 05:30:19;;;;;;;6.05;3.50;;;18.60;99.90;;;;;;4996081;28;20025;-85
2022/07/03 05:32:45;;;;;;;6.10;3.83;;;18.60;99.90;;;;;;4996185;28;20022;-85
2022/07/03 05:35:11;;;;;;;5.72;3.22;;;18.60;99.90;;;;;;4996320;28;20105;-85
2022/07/03 05:37:37;;;;;;;6.75;3.28;;;18.60;99.90;;;;;;4996997;28;20542;-85
2022/07/03 05:40:06;;;;;;;6.63;3.67;;;18.70;99.90;;;;;;5001180;28;20030;-86
2022/07/03 05:42:32;;;;;;;7.47;3.33;;;18.70;99.90;;;;;;5006308;28;20436;-85
2022/07/03 05:44:58;;;;;;;5.05;3.17;;;18.70;99.90;;;;;;5013445;28;20061;-86
2022/07/03 05:47:24;;;;;;;5.30;3.13;;;18.70;99.90;;;;;;4999120;28;20434;-85
2022/07/03 05:49:49;;;;;;;5.05;3.17;;;18.70;99.90;;;;;;4993989;28;20555;-85
2022/07/03 05:52:18;;;;;;;6.68;3.70;;;18.70;99.90;;;;;;5003638;28;20032;-85
2022/07/03 05:54:43;;;;;;;8.85;3.47;;;18.70;99.90;;;;;;4983224;28;20033;-85
2022/07/03 05:57:12;;;;;;;6.70;3.65;;;18.70;99.90;;;;;;4981656;28;20025;-85
2022/07/03 05:59:38;;;;;;;6.43;3.33;;;18.80;99.90;;;;;;4999028;28;20026;-85
2022/07/03 06:02:04;;;;;;;7.53;3.83;;;18.80;99.90;;;;;;5011529;28;20025;-85
2022/07/03 06:04:30;;;;;;;7.13;4.10;;;18.80;99.90;;;;;;4991489;28;20025;-85
2022/07/03 06:10:18;;;;;;;6.88;3.10;;;18.80;99.90;;;;;;5027761;28;20037;-85
2022/07/03 06:12:46;;;;;;;5.25;3.00;;;18.80;99.90;;;;;;4993866;28;20037;-85
2022/07/03 06:15:12;;;;;;;8.25;3.00;;;18.80;99.90;;;;;;5010575;28;20172;-85
2022/07/03 06:17:38;;;;;;;6.07;3.03;;;18.90;99.90;;;;;;4990109;28;20486;-85
2022/07/03 06:20:05;;;;;;;5.38;2.75;;;18.90;99.90;;;;;;4999129;28;20052;-85
2022/07/03 06:22:31;;;;;;;6.75;3.17;;;19.00;99.90;;;;;;5014595;28;20075;-85
2022/07/03 06:28:19;;;;;;;6.18;2.60;;;19.00;99.90;;;;;;5018547;28;20513;-84
2022/07/03 06:31:40;;;;;;;5.93;2.33;;;19.00;99.90;;;;;;5036735;28;20029;-84
2022/07/03 06:34:09;;;;;;;6.03;2.70;;;19.10;99.90;;;;;;5003998;28;20022;-85
2022/07/03 06:36:35;;;;;;;6.72;2.60;;;19.20;99.90;;;;;;4999295;28;20041;-85
2022/07/03 06:39:19;;;;;;;6.18;2.60;;;19.20;99.90;;;;;;4983578;28;20060;-85
2022/07/03 06:41:45;;;;;;;7.03;3.50;;;19.20;99.90;;;;;;5004418;28;20030;-85
2022/07/03 06:44:10;;;;;;;7.57;2.70;;;19.30;99.90;;;;;;4997836;28;20060;-85
2022/07/03 06:46:37;;;;;;;6.22;2.97;;;19.40;99.90;;;;;;5012130;28;20018;-85
2022/07/03 06:49:04;;;;;;;4.90;2.60;;;19.40;99.90;;;;;;5018242;28;20046;-85
2022/07/03 06:51:29;;;;;;;7.70;2.90;;;19.40;99.90;;;;;;5008279;28;20057;-85
2022/07/03 06:53:55;;;;;;;7.68;2.80;;;19.50;99.90;;;;;;5011907;28;20049;-85
2022/07/03 06:56:21;;;;;;;4.75;2.13;;;19.50;99.90;;;;;;5026259;28;20017;-85
2022/07/03 06:58:47;;;;;;;5.25;2.80;;;19.60;99.90;;;;;;5007099;28;20057;-84
2022/07/03 07:01:12;;;;;;;4.43;2.50;;;19.70;99.90;;;;;;4986832;28;20137;-84
2022/07/03 07:03:38;;;;;;;5.28;2.38;;;19.70;99.90;;;;;;5001991;28;20048;-84
2022/07/03 07:06:04;;;;;;;4.32;2.00;;;19.80;99.90;;;;;;5004746;28;20030;-84
2022/07/03 07:08:29;;;;;;;7.28;2.40;;;19.80;99.90;;;;;;5019510;28;20037;-84
2022/07/03 07:10:55;;;;;;;6.50;2.00;;;19.90;99.90;;;;;;4986016;28;20468;-84
2022/07/03 07:13:21;;;;;;;4.80;1.88;;;20.00;99.90;;;;;;5016400;28;20507;-84
2022/07/03 07:15:46;;;;;;;5.07;2.22;;;20.10;99.90;;;;;;4985331;28;20037;-84
2022/07/03 07:18:21;;;;;;;7.05;2.13;;;20.10;99.90;;;;;;4984485;28;20480;-84
2022/07/03 07:20:47;;;;;;;6.50;1.75;;;20.20;99.90;;;;;;5005070;28;20037;-84
2022/07/03 07:23:12;;;;;;;9.00;1.80;;;20.30;99.90;;;;;;5023605;28;20116;-85
2022/07/03 07:25:38;;;;;;;4.07;1.65;;;20.40;99.90;;;;;;5007269;28;20422;-84
2022/07/03 07:28:04;;;;;;;4.15;1.80;;;20.50;99.90;;;;;;4995664;28;20026;-84
2022/07/03 07:30:32;;;;;;;4.22;1.70;;;20.50;99.90;;;;;;5025578;28;20029;-84
2022/07/03 07:32:58;;;;;;;4.03;1.60;;;20.60;99.90;;;;;;4974540;28;20050;-84
2022/07/03 07:35:23;;;;;;;5.38;1.80;;;20.70;99.90;;;;;;4985453;28;20037;-84
2022/07/03 07:37:49;;;;;;;5.53;1.85;;;20.80;99.90;;;;;;5006311;28;20036;-84
2022/07/03 07:40:15;;;;;;;4.30;1.90;;;20.90;99.90;;;;;;5011683;28;20018;-85
2022/07/03 07:42:42;;;;;;;3.83;1.63;;;20.90;99.90;;;;;;4986534;28;20087;-84
2022/07/03 07:45:09;;;;;;;5.85;1.83;;;21.00;99.90;;;;;;5005251;28;20029;-84
2022/07/03 07:47:34;;;;;;;4.07;1.42;;;21.10;99.90;;;;;;4991282;28;20086;-85
2022/07/03 07:50:00;;;;;;;4.82;1.23;;;21.10;99.90;;;;;;4976036;28;20506;-84
2022/07/03 07:52:26;;;;;;;4.63;1.42;;;21.20;99.90;;;;;;4995051;28;20034;-84
2022/07/03 07:54:51;;;;;;;6.00;1.40;;;21.30;99.90;;;;;;4991367;28;20095;-84
2022/07/03 07:57:17;;;;;;;3.78;1.27;;;21.40;99.90;;;;;;5011200;28;20026;-84
2022/07/03 07:59:43;;;;;;;3.90;1.80;;;21.40;99.90;;;;;;4985075;28;20030;-85
2022/07/03 08:07:36;;;;;;;5.32;1.40;;;21.60;98.70;;;;;;5012489;28;20040;-85
2022/07/03 08:10:03;;;;;;;4.72;1.42;;;21.70;98.10;;;;;;5010170;28;20129;-84
2022/07/03 08:12:29;;;;;;;4.45;1.30;;;21.70;98.00;;;;;;5016235;28;20073;-84
2022/07/03 08:14:54;;;;;;;5.38;1.50;;;21.80;98.30;;;;;;4988574;28;20022;-84
2022/07/03 08:17:20;;;;;;;5.97;1.60;;;21.90;98.40;;;;;;5008794;28;20028;-85
2022/07/03 08:19:46;;;;;;;8.82;2.13;;;22.00;98.20;;;;;;5004364;28;20109;-84
2022/07/03 08:22:11;;;;;;;6.05;1.50;;;22.10;98.00;;;;;;5002180;28;20400;-85
2022/07/03 08:24:37;;;;;;;3.63;1.23;;;22.10;97.60;;;;;;4984800;28;20072;-84
2022/07/03 08:27:04;;;;;;;5.00;1.30;;;22.20;97.30;;;;;;4982545;28;20021;-84
2022/07/03 08:29:30;;;;;;;3.78;1.42;;;22.30;97.40;;;;;;5002172;28;20030;-85
2022/07/03 08:31:56;;;;;;;3.38;1.30;;;22.40;97.10;;;;;;4999754;28;20103;-84
2022/07/03 08:34:22;;;;;;;5.28;1.27;;;22.50;97.00;;;;;;4983987;28;20581;-84
2022/07/03 08:36:49;;;;;;;3.67;1.13;;;22.60;96.70;;;;;;4998516;28;20049;-84
2022/07/03 08:39:15;;;;;;;3.38;1.00;;;22.60;96.60;;;;;;5003176;28;20014;-84
2022/07/03 08:41:41;;;;;;;2.40;1.30;;;22.70;96.20;;;;;;5011067;28;20113;-85
2022/07/03 08:44:12;;;;;;;2.90;0.98;;;22.70;95.10;;;;;;5000009;28;20029;-83
2022/07/03 08:46:38;;;;;;;;;;;22.80;93.90;;;;;;5010030;28;20032;-85
2022/07/03 08:49:06;;;;;;;2.90;1.35;;;22.80;93.40;;;;;;4999924;28;19960;-85
2022/07/03 08:51:32;;;;;;;2.80;0.98;;;22.80;93.10;;;;;;4998895;28;20049;-86
2022/07/03 08:54:01;;;;;;;4.85;1.70;;;22.90;93.40;;;;;;4999714;28;20026;-86
2022/07/03 08:56:27;;;;;;;4.22;1.50;;;22.90;93.60;;;;;;4985542;28;20026;-86
2022/07/03 08:59:05;;;;;;;4.88;1.30;;;23.00;93.70;;;;;;4978192;28;20036;-85
2022/07/03 09:01:32;;;;;;;3.97;1.45;;;23.10;93.30;;;;;;5017838;28;20026;-86
2022/07/03 09:03:59;;;;;;;3.60;1.42;;;23.10;92.50;;;;;;4980943;28;20111;-87
2022/07/03 09:06:25;;;;;;;3.28;1.20;;;23.10;92.10;;;;;;5002824;28;20033;-85
2022/07/03 09:08:53;;;;;;;5.05;1.48;;;23.20;92.40;;;;;;4981743;28;20034;-85
2022/07/03 09:11:19;;;;;;;4.07;1.48;;;23.20;92.70;;;;;;4996796;28;20053;-85
2022/07/03 09:13:45;;;;;;;4.93;1.63;;;23.30;92.90;;;;;;5001094;28;20057;-85
2022/07/03 09:16:15;;;;;;;3.15;1.20;;;23.40;93.10;;;;;;4981491;28;20057;-85
2022/07/03 09:18:43;;;;;;;;;;;23.40;93.00;;;;;;4981910;28;20499;-85
2022/07/03 09:21:09;;;;;;;3.08;1.13;;;23.50;92.90;;;;;;5015663;28;20350;-85
2022/07/03 09:23:40;;;;;;;1.70;1.00;;;23.50;92.70;;;;;;5015036;28;20022;-85
2022/07/03 09:26:13;;;;;;;3.90;1.02;;;23.50;92.40;;;;;;4997350;28;20422;-86
2022/07/03 09:28:51;;;;;;;1.98;0.98;;;23.60;92.30;;;;;;4983910;28;20022;-85
2022/07/03 09:31:19;;;;;;;3.35;1.05;;;23.70;92.20;;;;;;4981247;28;20034;-85
2022/07/03 09:33:59;;;;;;;3.90;1.00;;;23.70;92.00;;;;;;4994050;28;20383;-85
2022/07/03 09:36:45;;;;;;;3.95;1.15;;;23.80;92.10;;;;;;4967764;28;20039;-85
2022/07/03 09:39:14;;;;;;;2.80;1.13;;;23.80;91.10;;;;;;4975904;28;20476;-85
2022/07/03 09:41:53;;;;;;;5.18;1.30;;;23.80;91.10;;;;;;4976894;28;20026;-85
2022/07/03 09:44:41;;;;;;;5.68;1.38;;;23.80;91.30;;;;;;4976238;28;20037;-86
2022/07/03 09:47:20;;;;;;;3.58;1.08;;;23.90;91.60;;;;;;4975795;28;20468;-85
2022/07/03 09:49:56;;;;;;;3.70;1.02;;;23.90;91.70;;;;;;4988237;28;20034;-85
2022/07/03 09:52:28;;;;;;;2.55;1.00;;;23.90;91.30;;;;;;4990357;28;20023;-87
2022/07/03 09:55:20;;;;;;;4.38;1.13;;;23.90;91.00;;;;;;4993742;28;20026;-86
2022/07/03 09:57:59;;;;;;;3.00;0.82;;;23.90;91.00;;;;;;4991171;28;20030;-86
2022/07/03 10:00:25;;;;;;;3.78;1.50;;;23.90;90.80;;;;;;4961734;28;20037;-87
2022/07/03 10:03:09;;;;;;;3.80;1.30;;;23.90;90.20;;;;;;4990214;28;20034;-87
2022/07/03 10:05:41;;;;;;;2.08;1.08;;;24.00;90.40;;;;;;4971048;28;20077;-86
2022/07/03 10:08:08;;;;;;;2.42;0.90;;;24.00;90.70;;;;;;4989991;28;20031;-86
2022/07/03 10:10:38;;;;;;;4.45;1.13;;;24.00;91.10;;;;;;4975254;28;20049;-86
2022/07/03 10:13:04;;;;;;;;;;;24.10;91.20;;;;;;4987242;28;20026;-86
2022/07/03 10:15:32;;;;;;;5.30;1.45;;;24.10;90.50;;;;;;4963554;28;20013;-86
2022/07/03 10:17:59;;;;;;;6.43;1.65;;;24.20;90.60;;;;;;4993142;28;20026;-85
2022/07/03 10:20:55;;;;;;;3.40;1.38;;;24.20;90.60;;;;;;4989510;28;20053;-86
2022/07/03 10:23:22;;;;;;;3.85;1.20;;;24.20;90.50;;;;;;4971200;28;20132;-86
2022/07/03 10:25:48;;;;;;;4.18;1.30;;;24.30;90.60;;;;;;4963606;28;20176;-86
2022/07/03 10:28:36;;;;;;;3.13;1.10;;;24.30;90.70;;;;;;4965294;28;20027;-85
2022/07/03 10:31:01;;;;;;;1.98;0.70;;;24.30;90.40;;;;;;4962388;28;20062;-86
2022/07/03 10:33:28;;;;;;;2.20;1.20;;;24.30;90.30;;;;;;4973514;28;20081;-86
2022/07/03 10:35:56;;;;;;;3.13;1.15;;;24.40;90.20;;;;;;4982505;28;20141;-86
2022/07/03 10:38:39;;;;;;;2.60;1.05;;;24.40;90.30;;;;;;5001849;28;20041;-86
2022/07/03 10:47:02;;;;;;;4.68;1.33;;;24.60;90.90;;;;;;4993376;28;20123;-87
2022/07/03 10:49:28;;;;;;;3.13;1.20;;;24.60;90.40;;;;;;4993697;28;20041;-86
2022/07/03 10:52:00;;;;;;;2.60;1.30;;;24.70;90.20;;;;;;4992813;28;20030;-86
2022/07/03 10:54:33;;;;;;;3.05;0.90;;;24.70;90.30;;;;;;4992831;28;20018;-87
2022/07/03 10:56:59;;;;;;;4.03;1.42;;;24.80;90.50;;;;;;4992793;28;20037;-87
2022/07/03 10:59:42;;;;;;;3.28;0.90;;;24.80;90.30;;;;;;4994137;28;20101;-87
2022/07/03 11:02:49;;;;;;;3.38;1.10;;;24.90;90.20;;;;;;4980687;28;20041;-87
2022/07/03 11:05:21;;;;;;;3.13;1.08;;;24.90;88.50;;;;;;4958414;28;20026;-87
2022/07/03 11:07:53;;;;;;;3.35;1.30;;;25.00;88.00;;;;;;4988674;28;20029;-87
2022/07/03 11:10:18;;;;;;;4.32;1.00;;;24.90;87.80;;;;;;4998341;28;20065;-87
2022/07/03 11:13:15;;;;;;;3.15;1.00;;;25.00;87.30;;;;;;5012251;28;20065;-87
2022/07/03 11:15:50;;;;;;;2.70;0.95;;;25.00;86.60;;;;;;4987606;28;20042;-87
2022/07/03 11:18:31;;;;;;;1.92;0.90;;;25.10;86.70;;;;;;4999721;28;20041;-87
2022/07/03 11:21:15;;;;;;;2.97;1.15;;;25.10;86.40;;;;;;5005254;28;20018;-87
2022/07/03 11:24:23;;;;;;;3.53;1.05;;;25.10;86.60;;;;;;4998266;28;20026;-86
2022/07/03 11:27:18;;;;;;;3.95;1.35;;;25.20;85.70;;;;;;5028887;28;20022;-86
2022/07/03 11:29:50;;;;;;;2.63;1.23;;;25.10;84.60;;;;;;5016329;28;20104;-86
2022/07/03 11:32:48;;;;;;;3.67;1.20;;;25.20;84.50;;;;;;4996632;28;20105;-84
2022/07/03 11:35:43;;;;;;;3.83;1.10;;;25.20;84.80;;;;;;4994214;28;20030;-86
2022/07/03 11:38:08;;;;;;;3.58;1.02;;;25.20;84.10;;;;;;4995917;28;20057;-86
2022/07/03 11:40:36;;;;;;;3.10;1.20;;;25.20;84.50;;;;;;4983102;28;20053;-86
2022/07/03 11:43:02;;;;;;;3.35;1.25;;;25.20;83.90;;;;;;5003807;28;20387;-86
2022/07/03 11:45:31;;;;;;;4.53;1.30;;;25.20;82.80;;;;;;5005069;28;20029;-87
2022/07/03 11:47:57;;;;;;;3.45;1.13;;;25.20;83.80;;;;;;5016833;28;20456;-87
2022/07/03 11:50:43;;;;;;;2.55;1.20;;;25.30;84.20;;;;;;4983597;28;20018;-86
2022/07/03 11:53:15;;;;;;;3.50;1.10;;;25.30;83.90;;;;;;4980371;28;20452;-87
2022/07/03 11:55:57;;;;;;;3.40;1.05;;;25.40;83.30;;;;;;4998939;28;20030;-87
2022/07/03 11:58:25;;;;;;;3.88;1.10;;;25.40;82.90;;;;;;5015104;28;20046;-86
2022/07/03 12:00:51;;;;;;;2.28;1.10;;;25.50;81.70;;;;;;4982761;28;20030;-87
2022/07/03 12:03:22;;;;;;;2.53;1.30;;;25.50;81.60;;;;;;5006261;28;20038;-86
2022/07/03 12:06:00;;;;;;;6.05;1.98;;;25.50;82.10;;;;;;5014679;28;20037;-88
2022/07/03 12:08:32;;;;;;;2.85;1.02;;;25.60;79.70;;;;;;4981355;28;20480;-87
2022/07/03 12:11:07;;;;;;;2.67;1.00;;;25.60;79.70;;;;;;5016210;28;20139;-87
2022/07/03 12:13:33;;;;;;;2.03;1.05;;;25.60;78.90;;;;;;4999271;28;20015;-87
2022/07/03 12:16:13;;;;;;;3.08;1.10;;;25.60;79.40;;;;;;5019361;28;20046;-87
2022/07/03 12:18:52;;;;;;;3.90;1.20;;;25.60;79.60;;;;;;4997491;28;20172;-87
2022/07/03 12:21:20;;;;;;;2.95;1.25;;;25.70;79.20;;;;;;4992606;28;20034;-87
2022/07/03 12:23:55;;;;;;;3.38;1.10;;;25.70;79.10;;;;;;5014642;28;20033;-86
2022/07/03 12:26:31;;;;;;;3.70;1.08;;;25.80;79.60;;;;;;4998909;28;20030;-86
2022/07/03 12:29:09;;;;;;;2.95;1.00;;;25.80;79.60;;;;;;4994216;28;20022;-87
2022/07/03 12:31:38;;;;;;;4.88;1.15;;;25.90;79.90;;;;;;4997627;28;20100;-87
2022/07/03 12:34:04;;;;;;;3.95;1.25;;;26.00;80.40;;;;;;5002029;28;20076;-87
2022/07/03 12:36:29;;;;;;;2.55;0.90;;;26.00;79.60;;;;;;4980495;28;20050;-87
2022/07/03 12:38:57;;;;;;;2.53;1.00;;;26.00;79.50;;;;;;5012955;28;20068;-86
2022/07/03 12:41:24;;;;;;;2.40;1.15;;;26.10;78.10;;;;;;5013763;28;20030;-86
2022/07/03 12:43:51;;;;;;;4.75;1.40;;;26.10;77.60;;;;;;4997999;28;20022;-86
2022/07/03 12:46:21;;;;;;;1.73;0.95;;;26.10;76.00;;;;;;5007077;28;20030;-87
2022/07/03 12:48:55;;;;;;;2.50;1.00;;;26.10;76.50;;;;;;5015082;28;20084;-87
2022/07/03 12:51:39;;;;;;;2.53;1.02;;;26.10;77.40;;;;;;4996157;28;20384;-86
2022/07/03 12:54:15;;;;;;;3.38;1.05;;;26.20;77.70;;;;;;4993722;28;20113;-87
2022/07/03 12:56:43;;;;;;;1.65;0.75;;;26.20;77.30;;;;;;5000724;28;20133;-86
2022/07/03 12:59:29;;;;;;;3.20;0.98;;;26.20;75.60;;;;;;4999630;28;20121;-87
2022/07/03 13:02:03;;;;;;;3.90;0.88;;;26.30;75.10;;;;;;4995478;28;20042;-87
2022/07/03 13:04:46;;;;;;;3.50;1.10;;;26.30;75.20;;;;;;5015309;28;20021;-86
2022/07/03 13:07:12;;;;;;;3.25;0.82;;;26.30;74.30;;;;;;4965724;28;20038;-86
2022/07/03 13:09:39;;;;;;;2.97;1.08;;;26.30;74.00;;;;;;4981041;28;20041;-86
2022/07/03 13:12:05;;;;;;;3.90;1.45;;;26.30;74.50;;;;;;4998847;28;20077;-87
2022/07/03 13:14:31;;;;;;;3.38;0.90;;;26.30;75.30;;;;;;5003965;28;20038;-86
2022/07/03 13:16:58;;;;;;;1.70;1.17;;;26.30;73.20;;;;;;4985401;28;20022;-86
2022/07/03 13:22:50;;;;;;;4.82;1.60;;;26.30;73.50;;;;;;5011136;28;20037;-86
2022/07/03 13:25:16;;;;;;;2.90;1.45;;;26.30;73.40;;;;;;5019760;28;20093;-86
2022/07/03 13:28:03;;;;;;;4.05;1.20;;;26.30;73.40;;;;;;5020233;28;20021;-87
2022/07/03 13:30:29;;;;;;;3.38;0.93;;;26.30;71.90;;;;;;4999452;28;20030;-87
2022/07/03 13:32:55;;;;;;;3.65;0.98;;;26.30;72.40;;;;;;4978508;28;20026;-86
2022/07/03 13:35:20;;;;;;;2.92;1.08;;;26.30;72.60;;;;;;4978612;28;20038;-86
2022/07/03 13:37:46;;;;;;;3.22;1.00;;;26.30;73.40;;;;;;5017410;28;20056;-86